createdAt,value
2019-03-26T00:02:08.000Z,1021.295
2019-03-26T00:12:08.000Z,1021.433
2019-03-26T00:22:08.000Z,1021.501
2019-03-26T00:32:08.000Z,1021.461
2019-03-26T00:42:08.000Z,1021.5
2019-03-26T00:52:09.000Z,1021.54
2019-03-26T01:02:08.000Z,1021.54
2019-03-26T01:12:08.000Z,1021.686
2019-03-26T01:22:08.000Z,1021.744
2019-03-26T01:32:08.000Z,1021.666
2019-03-26T01:42:08.000Z,1021.754
2019-03-26T01:52:08.000Z,1021.793
2019-03-26T02:02:08.000Z,1021.762
2019-03-26T02:12:08.000Z,1021.777
2019-03-26T02:22:08.000Z,1021.699
2019-03-26T02:32:08.000Z,1021.776
2019-03-26T02:42:09.000Z,1021.642
2019-03-26T02:52:09.000Z,1021.668
2019-03-26T03:02:09.000Z,1021.746
2019-03-26T03:12:09.000Z,1021.753
2019-03-26T03:22:09.000Z,1021.728
2019-03-26T03:32:09.000Z,1021.721
2019-03-26T03:42:09.000Z,1021.677
2019-03-26T03:52:09.000Z,1021.765
2019-03-26T04:02:09.000Z,1021.778
2019-03-26T04:12:09.000Z,1021.787
2019-03-26T04:22:09.000Z,1021.645
2019-03-26T04:32:09.000Z,1021.801
2019-03-26T04:42:09.000Z,1021.73
2019-03-26T04:52:09.000Z,1021.753
2019-03-26T05:12:09.000Z,1021.74
2019-03-26T05:22:09.000Z,1021.687
2019-03-26T05:32:09.000Z,1021.645
2019-03-26T05:42:09.000Z,1021.68
2019-03-26T05:52:09.000Z,1021.607
2019-03-26T06:02:09.000Z,1021.621
2019-03-26T06:12:09.000Z,1021.568
2019-03-26T06:22:11.000Z,1021.708
2019-03-26T06:32:09.000Z,1021.762
2019-03-26T06:42:09.000Z,1021.854
2019-03-26T06:52:10.000Z,1021.964
2019-03-26T07:02:09.000Z,1021.964
2019-03-26T07:12:09.000Z,1022.132
2019-03-26T07:22:09.000Z,1022.222
2019-03-26T07:32:09.000Z,1022.284
2019-03-26T07:42:09.000Z,1022.225
2019-03-26T08:02:09.000Z,1022.342
2019-03-26T08:12:10.000Z,1022.444
2019-03-26T08:22:09.000Z,1022.347
2019-03-26T08:32:09.000Z,1022.223
2019-03-26T08:42:09.000Z,1022.321
2019-03-26T08:52:12.000Z,1022.31
2019-03-26T09:02:09.000Z,1022.456
2019-03-26T09:12:09.000Z,1022.433
2019-03-26T09:22:12.000Z,1022.461
2019-03-26T09:32:09.000Z,1022.377
2019-03-26T09:42:09.000Z,1022.401
2019-03-26T09:52:09.000Z,1022.349
2019-03-26T10:02:09.000Z,1022.287
2019-03-26T10:12:09.000Z,1022.262
2019-03-26T10:22:09.000Z,1022.21
2019-03-26T10:32:09.000Z,1022.121
2019-03-26T10:42:09.000Z,1022.024
2019-03-26T10:52:10.000Z,1021.885
2019-03-26T11:02:10.000Z,1021.83
2019-03-26T11:12:11.000Z,1021.691
2019-03-26T11:22:10.000Z,1021.777
2019-03-26T11:32:10.000Z,1021.929
2019-03-26T11:42:10.000Z,1021.833
2019-03-26T11:52:10.000Z,1021.962
2019-03-26T12:02:10.000Z,1021.978
2019-03-26T12:12:10.000Z,1021.821
2019-03-26T12:22:10.000Z,1021.878
2019-03-26T12:32:10.000Z,1021.78
2019-03-26T12:42:10.000Z,1021.8
2019-03-26T12:52:10.000Z,1021.78
2019-03-26T13:02:10.000Z,1021.811
2019-03-26T13:12:10.000Z,1021.725
2019-03-26T13:22:10.000Z,1021.813
2019-03-26T13:32:12.000Z,1021.853
2019-03-26T13:42:10.000Z,1021.834
2019-03-26T13:52:10.000Z,1021.92
2019-03-26T14:02:10.000Z,1021.802
2019-03-26T14:12:10.000Z,1021.723
2019-03-26T14:22:10.000Z,1021.708
2019-03-26T14:32:10.000Z,1021.73
2019-03-26T14:42:10.000Z,1021.775
2019-03-26T14:52:10.000Z,1021.747
2019-03-26T15:02:10.000Z,1021.69
2019-03-26T15:12:10.000Z,1021.698
2019-03-26T15:22:10.000Z,1021.712
2019-03-26T15:32:10.000Z,1021.743
2019-03-26T15:42:10.000Z,1021.757
2019-03-26T15:52:10.000Z,1021.759
2019-03-26T16:02:10.000Z,1021.706
2019-03-26T16:12:10.000Z,1021.705
2019-03-26T16:22:10.000Z,1021.766
2019-03-26T16:32:10.000Z,1021.793
2019-03-26T16:42:10.000Z,1021.767
2019-03-26T16:52:10.000Z,1021.753
2019-03-26T17:02:10.000Z,1021.709
2019-03-26T17:12:10.000Z,1021.698
2019-03-26T17:22:10.000Z,1021.692
2019-03-26T17:32:10.000Z,1021.732
2019-03-26T17:42:10.000Z,1021.8
2019-03-26T17:52:10.000Z,1021.845
2019-03-26T18:02:11.000Z,1021.837
2019-03-26T18:12:10.000Z,1021.889
2019-03-26T18:22:10.000Z,1021.949
2019-03-26T18:32:10.000Z,1022.029
2019-03-26T18:42:10.000Z,1022.187
2019-03-26T18:52:11.000Z,1022.297
2019-03-26T19:02:11.000Z,1022.365
2019-03-26T19:12:11.000Z,1022.529
2019-03-26T19:22:12.000Z,1022.628
2019-03-26T19:32:11.000Z,1022.761
2019-03-26T19:42:11.000Z,1022.778
2019-03-26T19:52:11.000Z,1022.813
2019-03-26T20:02:11.000Z,1022.856
2019-03-26T20:12:11.000Z,1022.697
2019-03-26T20:22:11.000Z,1022.766
2019-03-26T20:32:11.000Z,1022.796
2019-03-26T20:42:11.000Z,1022.821
2019-03-26T20:52:11.000Z,1022.989
2019-03-26T21:02:11.000Z,1023.068
2019-03-26T21:12:11.000Z,1023.131
2019-03-26T21:22:12.000Z,1023.169
2019-03-26T21:32:11.000Z,1023.221
2019-03-26T21:42:11.000Z,1023.261
2019-03-26T21:52:11.000Z,1023.208
2019-03-26T22:02:14.000Z,1023.124
2019-03-26T22:12:11.000Z,1023.093
2019-03-26T22:22:11.000Z,1023.072
2019-03-26T22:32:11.000Z,1023.106
2019-03-26T22:42:11.000Z,1023.084
2019-03-26T22:52:11.000Z,1023.101
2019-03-26T23:02:11.000Z,1023.14
2019-03-26T23:12:11.000Z,1023.238
2019-03-26T23:22:11.000Z,1023.296
2019-03-26T23:32:11.000Z,1023.372
2019-03-26T23:42:11.000Z,1023.349
2019-03-26T23:52:11.000Z,1023.313
